Time;durP1;ratioP1;P1;durP2;ratioP2;P2;SDS_P1;SDS_P2;PMS_P1;PMS_P2;Temp;Humidity;BMP_temperature;BMP_pressure;BME280_temperature;BME280_humidity;BME280_pressure;Samples;Min_cycle;Max_cycle;Signal;HPM_P1;HPM_P2
2023/02/28 00:01:06;;;;;;;69.27;6.40;;;1.70;1.00;;;;;;5056484;28;20187;-85
2023/02/28 00:03:36;;;;;;;66.77;6.77;;;1.70;1.00;;;;;;5056121;28;20218;-87
2023/02/28 00:06:04;;;;;;;70.05;6.78;;;1.70;1.00;;;;;;5058143;28;20879;-87
2023/02/28 00:08:29;;;;;;;70.45;7.07;;;1.80;1.00;;;;;;5055465;28;20743;-85
2023/02/28 00:10:55;;;;;;;68.30;6.57;;;1.70;1.00;;;;;;5054446;28;20227;-84
2023/02/28 00:13:21;;;;;;;68.40;6.13;;;1.60;1.00;;;;;;5054748;28;20426;-84
2023/02/28 00:15:47;;;;;;;67.07;6.63;;;1.60;1.00;;;;;;5054971;28;20403;-85
2023/02/28 00:18:13;;;;;;;66.83;6.10;;;1.60;1.00;;;;;;5053838;28;20422;-84
2023/02/28 00:20:39;;;;;;;67.00;6.45;;;1.50;1.00;;;;;;5055050;28;20687;-84
2023/02/28 00:23:08;;;;;;;69.35;7.07;;;1.50;1.00;;;;;;5053653;28;20188;-84
2023/02/28 00:25:33;;;;;;;69.10;6.38;;;1.60;1.00;;;;;;5055245;28;20167;-84
2023/02/28 00:27:59;;;;;;;66.70;6.67;;;1.70;1.00;;;;;;5055473;28;20171;-84
2023/02/28 00:30:25;;;;;;;65.17;5.83;;;1.50;1.00;;;;;;5057109;28;20222;-84
2023/02/28 00:32:51;;;;;;;71.80;6.70;;;1.50;1.00;;;;;;5056643;28;20267;-84
2023/02/28 00:35:16;;;;;;;72.47;6.80;;;1.50;1.00;;;;;;5057179;28;20263;-84
2023/02/28 00:37:42;;;;;;;67.93;7.40;;;1.50;1.00;;;;;;5058246;28;20203;-84
2023/02/28 00:40:09;;;;;;;68.33;6.63;;;1.40;1.00;;;;;;5058280;28;20307;-84
2023/02/28 00:42:36;;;;;;;66.57;6.60;;;1.50;1.00;;;;;;5056251;28;20181;-85
2023/02/28 00:45:04;;;;;;;69.13;6.20;;;1.40;1.00;;;;;;5058234;28;20168;-84
2023/02/28 00:47:30;;;;;;;67.00;6.72;;;1.40;1.00;;;;;;5058583;28;20161;-84
2023/02/28 00:49:56;;;;;;;68.80;7.00;;;1.40;1.00;;;;;;5058445;28;20180;-84
2023/02/28 00:52:21;;;;;;;70.77;7.20;;;1.40;1.00;;;;;;5056778;28;20234;-84
2023/02/28 00:54:47;;;;;;;66.60;6.47;;;1.40;1.00;;;;;;5058186;28;20160;-84
2023/02/28 00:57:13;;;;;;;68.63;7.10;;;1.50;1.00;;;;;;5057137;28;20169;-84
2023/02/28 00:59:38;;;;;;;68.40;6.83;;;1.40;1.00;;;;;;5057194;28;20631;-84
2023/02/28 01:02:04;;;;;;;70.57;6.90;;;1.50;1.00;;;;;;5058468;28;20196;-85
2023/02/28 01:04:30;;;;;;;66.83;7.00;;;1.50;1.00;;;;;;5058079;28;20192;-84
2023/02/28 01:06:58;;;;;;;66.77;6.10;;;1.40;1.00;;;;;;5057541;28;20251;-84
2023/02/28 01:09:24;;;;;;;68.20;6.60;;;1.50;1.00;;;;;;5057009;28;20164;-85
2023/02/28 01:11:49;;;;;;;65.70;5.83;;;1.40;1.00;;;;;;5057681;28;20212;-85
2023/02/28 01:14:17;;;;;;;68.80;6.40;;;1.40;1.00;;;;;;5062338;28;20509;-86
2023/02/28 01:16:43;;;;;;;67.00;6.40;;;1.50;1.00;;;;;;5061909;28;20164;-85
2023/02/28 01:19:09;;;;;;;68.72;6.53;;;1.50;1.00;;;;;;5061557;28;20561;-86
2023/02/28 01:21:35;;;;;;;65.23;6.00;;;1.50;1.00;;;;;;5060646;28;20200;-86
2023/02/28 01:24:03;;;;;;;65.80;5.60;;;1.30;1.00;;;;;;5059400;28;20164;-84
2023/02/28 01:26:29;;;;;;;66.32;6.60;;;1.30;1.00;;;;;;5057183;28;20222;-85
2023/02/28 01:28:55;;;;;;;66.50;6.20;;;1.40;1.00;;;;;;5056938;28;20192;-85
2023/02/28 01:31:22;;;;;;;66.27;6.60;;;1.30;1.00;;;;;;5056409;28;20183;-84
2023/02/28 01:33:48;;;;;;;66.63;6.40;;;1.30;1.00;;;;;;5056987;28;20628;-84
2023/02/28 01:36:20;;;;;;;66.15;5.95;;;1.30;1.00;;;;;;5057858;28;20165;-84
2023/02/28 01:38:49;;;;;;;68.07;6.88;;;1.30;1.00;;;;;;5058409;28;20245;-85
2023/02/28 01:41:24;;;;;;;68.10;7.18;;;1.30;1.00;;;;;;5058910;28;20188;-85
2023/02/28 01:43:49;;;;;;;69.43;7.03;;;1.30;1.00;;;;;;5061847;28;20220;-86
2023/02/28 01:46:15;;;;;;;69.67;7.20;;;1.30;1.20;;;;;;5061072;28;20196;-86
2023/02/28 01:48:47;;;;;;;66.47;6.30;;;1.20;2.20;;;;;;5060785;28;20165;-86
2023/02/28 01:51:20;;;;;;;66.45;6.80;;;1.20;3.10;;;;;;5061454;28;20161;-86
2023/02/28 01:53:50;;;;;;;67.53;6.90;;;1.20;3.80;;;;;;5061613;28;20612;-86
2023/02/28 01:56:22;;;;;;;66.65;6.70;;;1.20;4.30;;;;;;5060325;28;20156;-86
2023/02/28 01:58:52;;;;;;;65.38;5.75;;;1.20;3.30;;;;;;5060923;28;20161;-85
2023/02/28 02:01:23;;;;;;;68.70;7.13;;;1.10;3.70;;;;;;5058660;28;20188;-86
2023/02/28 02:03:55;;;;;;;66.75;6.63;;;1.20;2.40;;;;;;5060516;28;20152;-86
2023/02/28 02:06:29;;;;;;;68.07;6.70;;;1.10;1.10;;;;;;5058768;28;20161;-85
2023/02/28 02:08:55;;;;;;;67.82;6.53;;;1.10;4.20;;;;;;5059807;28;20231;-85
2023/02/28 02:11:23;;;;;;;66.45;6.50;;;1.10;3.90;;;;;;5059363;28;20199;-84
2023/02/28 02:14:13;;;;;;;69.10;6.75;;;1.00;5.00;;;;;;5059281;28;20180;-86
2023/02/28 02:17:06;;;;;;;67.50;6.70;;;1.00;3.50;;;;;;5059058;28;20223;-85
2023/02/28 02:20:16;;;;;;;66.80;6.75;;;1.00;4.30;;;;;;5058692;28;20179;-86
2023/02/28 02:23:11;;;;;;;67.05;6.20;;;0.90;5.00;;;;;;5058660;28;20200;-85
2023/02/28 02:25:54;;;;;;;68.55;7.30;;;1.00;6.00;;;;;;5046476;28;20185;-85
2023/02/28 02:28:36;;;;;;;66.97;6.75;;;1.00;3.70;;;;;;5058384;28;20173;-86
2023/02/28 02:31:40;;;;;;;66.10;6.30;;;1.00;5.10;;;;;;5059789;28;20180;-84
2023/02/28 02:34:08;;;;;;;67.70;6.72;;;0.90;4.50;;;;;;5059385;28;20291;-85
2023/02/28 02:36:53;;;;;;;69.35;6.40;;;0.90;3.20;;;;;;5059565;28;20263;-85
2023/02/28 02:39:28;;;;;;;67.90;5.50;;;0.90;3.20;;;;;;5059721;28;20176;-86
2023/02/28 02:41:56;;;;;;;69.13;7.38;;;0.90;2.50;;;;;;5059293;28;20706;-85
2023/02/28 02:44:27;;;;;;;66.60;5.80;;;1.10;1.00;;;;;;5058720;28;20164;-85
2023/02/28 02:46:59;;;;;;;67.63;6.93;;;1.00;1.00;;;;;;5059832;28;20680;-85
2023/02/28 02:49:30;;;;;;;67.03;6.78;;;1.00;1.00;;;;;;5059127;28;20149;-86
2023/02/28 02:52:04;;;;;;;71.03;7.53;;;1.00;1.00;;;;;;5059657;28;20196;-85
2023/02/28 02:54:37;;;;;;;66.53;6.45;;;1.00;1.00;;;;;;5058439;28;20228;-84
2023/02/28 02:57:34;;;;;;;66.90;7.00;;;0.90;1.00;;;;;;5057667;28;20169;-86
2023/02/28 03:00:01;;;;;;;66.82;6.40;;;0.90;1.00;;;;;;5057150;28;20180;-84
2023/02/28 03:02:33;;;;;;;67.70;6.90;;;0.90;1.00;;;;;;5057786;28;20188;-85
2023/02/28 03:05:21;;;;;;;66.97;5.82;;;0.90;1.00;;;;;;5059671;28;20173;-86
2023/02/28 03:07:46;;;;;;;71.05;6.13;;;0.90;1.00;;;;;;5048388;28;20659;-86
2023/02/28 03:10:29;;;;;;;65.80;6.00;;;1.00;1.00;;;;;;5058750;28;20190;-85
2023/02/28 03:13:11;;;;;;;68.10;5.68;;;1.00;1.00;;;;;;5058157;28;20203;-86
2023/02/28 03:15:49;;;;;;;67.10;6.40;;;1.00;1.00;;;;;;5059680;28;20231;-86
2023/02/28 03:18:31;;;;;;;67.22;5.50;;;0.90;1.00;;;;;;5060668;28;20168;-85
2023/02/28 03:21:15;;;;;;;68.05;6.50;;;0.90;1.00;;;;;;5060479;28;20173;-85
2023/02/28 03:24:23;;;;;;;67.65;5.97;;;0.80;1.00;;;;;;5060527;28;20141;-85
2023/02/28 03:27:02;;;;;;;67.10;6.20;;;0.80;1.00;;;;;;5059598;28;20659;-86
2023/02/28 03:29:48;;;;;;;66.93;6.72;;;0.70;1.00;;;;;;5059147;28;20187;-86
2023/02/28 03:32:38;;;;;;;66.28;5.57;;;0.70;1.00;;;;;;5056807;28;20204;-86
2023/02/28 03:35:30;;;;;;;66.40;6.07;;;0.70;1.00;;;;;;5059079;28;20149;-86
2023/02/28 03:38:04;;;;;;;67.55;6.30;;;0.80;1.00;;;;;;5053657;28;20521;-86
2023/02/28 03:40:34;;;;;;;66.78;5.97;;;0.80;1.00;;;;;;5057239;28;20203;-86
2023/02/28 03:43:08;;;;;;;65.60;6.05;;;0.80;1.00;;;;;;5058628;28;20172;-86
2023/02/28 03:45:37;;;;;;;65.97;6.05;;;0.90;1.00;;;;;;5058656;28;20508;-86
2023/02/28 03:48:18;;;;;;;65.82;6.15;;;0.90;1.00;;;;;;5057311;28;20176;-85
2023/02/28 03:50:47;;;;;;;68.55;5.93;;;0.80;1.00;;;;;;5056972;28;20160;-86
2023/02/28 03:53:20;;;;;;;77.00;6.68;;;0.80;1.00;;;;;;5058053;28;20236;-86
2023/02/28 03:55:49;;;;;;;66.85;6.05;;;0.90;1.00;;;;;;5057190;28;20149;-85
2023/02/28 03:58:42;;;;;;;66.35;6.28;;;0.70;1.00;;;;;;5058014;28;20172;-85
2023/02/28 04:01:25;;;;;;;65.88;5.63;;;0.70;1.00;;;;;;5060163;28;20188;-85
2023/02/28 04:03:51;;;;;;;65.40;5.72;;;0.70;1.00;;;;;;5063575;28;20153;-85
2023/02/28 04:06:20;;;;;;;66.10;6.00;;;0.70;1.00;;;;;;5063102;28;20190;-86
2023/02/28 04:08:47;;;;;;;66.95;5.85;;;0.70;1.00;;;;;;5062896;28;20570;-85
2023/02/28 04:11:25;;;;;;;66.80;6.78;;;0.70;1.00;;;;;;5063810;28;20175;-85
2023/02/28 04:13:52;;;;;;;68.47;6.32;;;0.90;1.00;;;;;;5062654;28;20190;-86
2023/02/28 04:16:17;;;;;;;66.72;5.90;;;0.80;1.00;;;;;;5062287;28;20169;-85
2023/02/28 04:18:43;;;;;;;66.40;6.90;;;0.80;1.00;;;;;;5063740;28;20191;-85
2023/02/28 04:21:10;;;;;;;69.87;6.20;;;0.90;1.00;;;;;;5063444;28;20194;-85
2023/02/28 04:23:35;;;;;;;67.60;5.95;;;0.80;1.00;;;;;;5063421;28;20635;-85
2023/02/28 04:26:01;;;;;;;65.40;5.93;;;0.70;1.00;;;;;;5063885;28;20163;-84
2023/02/28 04:28:27;;;;;;;65.87;5.57;;;0.70;1.00;;;;;;5062565;28;20643;-86
2023/02/28 04:31:10;;;;;;;66.90;6.40;;;0.70;1.00;;;;;;5062846;28;20263;-85
2023/02/28 04:33:36;;;;;;;66.55;6.38;;;0.60;1.00;;;;;;5063479;28;20156;-85
2023/02/28 04:36:04;;;;;;;67.03;5.90;;;0.60;1.00;;;;;;5062829;28;20636;-85
2023/02/28 04:38:33;;;;;;;66.57;6.35;;;0.60;1.00;;;;;;5062444;28;20175;-85
2023/02/28 04:41:00;;;;;;;68.05;6.65;;;0.50;1.00;;;;;;5061499;28;20252;-85
2023/02/28 04:43:29;;;;;;;66.43;6.30;;;0.50;1.00;;;;;;5062710;28;20191;-85
2023/02/28 04:45:56;;;;;;;67.00;6.88;;;0.50;1.00;;;;;;5062330;28;20165;-86
2023/02/28 04:48:33;;;;;;;67.53;6.70;;;0.50;1.00;;;;;;5061819;28;20165;-85
2023/02/28 04:51:04;;;;;;;67.07;6.57;;;0.60;1.00;;;;;;5063056;28;20149;-85
2023/02/28 04:53:30;;;;;;;67.50;6.50;;;0.60;1.00;;;;;;5064839;28;20169;-85
2023/02/28 04:55:57;;;;;;;68.60;6.93;;;0.60;1.00;;;;;;5064670;28;20167;-85
2023/02/28 04:58:25;;;;;;;67.43;6.50;;;0.50;1.00;;;;;;5064444;28;20259;-85
2023/02/28 05:00:52;;;;;;;65.30;5.95;;;0.40;1.00;;;;;;5062448;28;20196;-84
2023/02/28 05:03:20;;;;;;;69.47;6.28;;;0.40;1.00;;;;;;5061858;28;20680;-86
2023/02/28 05:05:46;;;;;;;67.43;6.40;;;0.30;1.00;;;;;;5064172;28;20160;-85
2023/02/28 05:08:12;;;;;;;67.05;6.95;;;0.30;1.00;;;;;;5061946;28;20236;-85
2023/02/28 05:10:38;;;;;;;67.50;6.83;;;0.20;1.00;;;;;;5062343;28;20219;-85
2023/02/28 05:13:04;;;;;;;65.90;6.30;;;0.30;1.00;;;;;;5061118;28;20435;-85
2023/02/28 05:15:30;;;;;;;70.20;7.00;;;0.20;1.00;;;;;;5063142;28;20230;-85
2023/02/28 05:17:55;;;;;;;75.80;7.30;;;0.20;1.00;;;;;;5060929;28;20180;-85
2023/02/28 05:20:21;;;;;;;66.20;7.17;;;0.20;1.00;;;;;;5061384;28;20193;-85
2023/02/28 05:22:47;;;;;;;67.10;7.13;;;0.20;1.00;;;;;;5061291;28;20199;-85
2023/02/28 05:25:17;;;;;;;67.40;6.80;;;0.20;1.00;;;;;;5061727;28;20176;-85
2023/02/28 05:27:44;;;;;;;68.82;8.13;;;0.20;1.00;;;;;;5061153;28;20430;-85
2023/02/28 05:30:37;;;;;;;69.25;7.65;;;0.10;1.00;;;;;;5073532;23;20274;-83
2023/02/28 05:33:32;;;;;;;66.78;6.90;;;0.10;1.00;;;;;;5135522;23;20687;-83
2023/02/28 05:36:22;;;;;;;66.88;6.43;;;0.00;1.00;;;;;;5064798;28;20205;-82
2023/02/28 05:38:57;;;;;;;67.60;6.63;;;0.00;1.00;;;;;;5065501;28;20145;-82
2023/02/28 05:45:13;;;;;;;66.10;6.35;;;0.00;1.00;;;;;;5061439;28;20164;-83
2023/02/28 05:48:49;;;;;;;;;;;;;;;;;;;;;
2023/02/28 05:57:50;;;;;;;67.45;6.65;;;0.00;1.00;;;;;;5062058;28;20172;-82
2023/02/28 06:00:31;;;;;;;67.50;6.80;;;0.00;1.00;;;;;;5062442;28;20234;-83
2023/02/28 06:03:43;;;;;;;66.70;6.88;;;-0.10;1.00;;;;;;5056253;28;20189;-83
2023/02/28 06:06:29;;;;;;;66.80;6.90;;;-0.10;1.00;;;;;;5062983;28;20176;-83
2023/02/28 06:09:10;;;;;;;69.15;7.55;;;0.00;1.00;;;;;;5064088;28;20216;-83
2023/02/28 06:11:53;;;;;;;66.47;6.95;;;0.00;1.00;;;;;;5064060;28;20200;-83
2023/02/28 06:14:37;;;;;;;68.25;7.18;;;0.00;1.00;;;;;;5064232;28;20149;-83
2023/02/28 06:17:12;;;;;;;69.07;6.82;;;0.00;1.00;;;;;;5062422;28;20620;-83
2023/02/28 06:23:26;;;;;;;66.78;7.20;;;0.00;1.00;;;;;;5025479;28;20244;-82
2023/02/28 06:26:06;;;;;;;68.45;6.95;;;0.10;1.00;;;;;;5061357;28;20187;-82
2023/02/28 06:28:44;;;;;;;68.55;6.95;;;0.20;1.00;;;;;;5062182;28;20151;-82
2023/02/28 06:31:25;;;;;;;68.68;7.20;;;0.20;1.00;;;;;;5062523;28;20168;-82
2023/02/28 06:33:57;;;;;;;73.47;6.60;;;0.30;1.00;;;;;;5062351;28;20177;-82
2023/02/28 06:36:35;;;;;;;67.80;6.93;;;0.30;1.00;;;;;;5062359;28;20157;-82
2023/02/28 06:39:15;;;;;;;67.47;7.05;;;0.30;1.00;;;;;;5064285;28;20171;-82
2023/02/28 06:41:52;;;;;;;67.00;6.55;;;0.40;1.00;;;;;;5109548;23;20524;-82
2023/02/28 06:44:24;;;;;;;66.50;6.95;;;0.40;1.00;;;;;;5043659;28;20255;-83
2023/02/28 06:47:17;;;;;;;68.05;7.00;;;0.40;1.00;;;;;;5044999;28;20181;-82
2023/02/28 06:49:52;;;;;;;66.45;6.68;;;0.40;1.00;;;;;;5041782;28;20223;-82
2023/02/28 06:52:17;;;;;;;66.43;6.47;;;0.30;1.00;;;;;;5041249;28;20226;-82
2023/02/28 06:54:59;;;;;;;67.07;6.80;;;0.40;1.00;;;;;;5023045;28;20169;-82
2023/02/28 06:57:35;;;;;;;66.68;6.40;;;0.40;1.00;;;;;;5041298;28;20442;-82
2023/02/28 07:00:07;;;;;;;67.30;5.88;;;0.40;1.00;;;;;;5042315;28;20149;-82
2023/02/28 07:02:35;;;;;;;66.82;6.22;;;0.40;1.00;;;;;;5024185;28;20188;-82
2023/02/28 07:05:00;;;;;;;67.05;7.15;;;0.40;1.00;;;;;;5041111;28;20168;-82
2023/02/28 07:07:26;;;;;;;67.17;6.43;;;0.50;1.00;;;;;;5040944;28;20162;-83
2023/02/28 07:09:55;;;;;;;68.60;6.80;;;0.50;1.00;;;;;;5041724;28;20435;-83
2023/02/28 07:12:22;;;;;;;69.32;7.40;;;0.60;1.00;;;;;;5040440;28;20184;-82
2023/02/28 07:14:47;;;;;;;68.20;7.67;;;0.60;1.00;;;;;;5040759;28;20165;-82
2023/02/28 07:17:13;;;;;;;72.20;6.93;;;0.70;1.00;;;;;;5040006;28;20485;-82
2023/02/28 07:19:39;;;;;;;67.70;7.80;;;0.70;1.00;;;;;;5022542;28;20415;-82
2023/02/28 07:22:05;;;;;;;68.28;6.80;;;0.70;1.00;;;;;;5039508;28;20205;-82
2023/02/28 07:24:34;;;;;;;67.90;7.57;;;0.70;1.00;;;;;;5022211;28;20172;-82
2023/02/28 07:27:00;;;;;;;69.30;7.10;;;0.70;1.00;;;;;;5022209;28;20180;-82
2023/02/28 07:29:26;;;;;;;66.57;6.47;;;0.70;1.00;;;;;;5039752;28;20157;-82
2023/02/28 07:31:52;;;;;;;66.20;6.47;;;0.70;1.00;;;;;;5021583;28;20189;-83
2023/02/28 07:34:42;;;;;;;66.80;6.90;;;0.70;1.00;;;;;;5039891;28;20400;-82
2023/02/28 07:37:36;;;;;;;65.60;6.65;;;0.70;1.00;;;;;;5039819;28;20520;-83
2023/02/28 07:40:08;;;;;;;67.70;7.45;;;0.80;1.00;;;;;;5018766;28;20195;-82
2023/02/28 07:42:36;;;;;;;68.95;7.07;;;0.90;1.00;;;;;;5021006;28;20259;-82
2023/02/28 07:45:11;;;;;;;67.70;7.18;;;0.90;1.00;;;;;;5038273;28;20173;-82
2023/02/28 07:47:42;;;;;;;68.80;8.32;;;1.00;1.00;;;;;;5020033;28;20263;-82
2023/02/28 07:50:14;;;;;;;67.10;7.35;;;0.90;1.00;;;;;;5038823;28;20145;-82
2023/02/28 07:52:41;;;;;;;68.25;7.32;;;1.00;1.00;;;;;;5037925;28;20212;-82
2023/02/28 07:55:11;;;;;;;66.78;6.78;;;1.00;1.00;;;;;;5038522;28;20162;-83
2023/02/28 07:57:36;;;;;;;70.22;7.03;;;1.10;1.00;;;;;;5038704;28;20167;-82
2023/02/28 08:00:09;;;;;;;68.40;8.43;;;1.10;1.00;;;;;;5019927;28;20695;-83
2023/02/28 08:02:35;;;;;;;69.55;8.15;;;1.20;1.00;;;;;;5037678;28;20431;-82
2023/02/28 08:05:01;;;;;;;69.20;7.22;;;1.30;1.00;;;;;;5037492;28;20161;-82
2023/02/28 08:07:26;;;;;;;68.17;7.07;;;1.30;1.00;;;;;;5019601;28;20711;-82
2023/02/28 08:09:52;;;;;;;67.47;7.60;;;1.30;1.00;;;;;;5019166;28;20499;-82
2023/02/28 08:12:18;;;;;;;71.50;7.70;;;1.30;1.00;;;;;;5020247;28;20435;-83
2023/02/28 08:14:43;;;;;;;70.87;6.20;;;1.40;1.00;;;;;;5037818;28;20201;-82
2023/02/28 08:17:10;;;;;;;67.57;7.53;;;1.50;1.00;;;;;;5037847;28;20162;-82
2023/02/28 08:19:36;;;;;;;68.53;7.25;;;1.50;1.00;;;;;;5039301;28;20169;-83
2023/02/28 08:22:04;;;;;;;69.30;8.37;;;1.50;1.00;;;;;;5038607;28;20204;-82
2023/02/28 08:24:30;;;;;;;67.43;6.50;;;1.60;1.00;;;;;;5038446;28;20172;-82
2023/02/28 08:26:56;;;;;;;68.67;6.60;;;1.70;1.00;;;;;;5038337;28;20161;-82
2023/02/28 08:29:22;;;;;;;66.72;6.47;;;1.80;1.00;;;;;;5037959;28;20162;-82
2023/02/28 08:31:51;;;;;;;67.47;7.05;;;1.80;1.00;;;;;;5037704;28;20177;-82
2023/02/28 08:34:17;;;;;;;74.35;7.20;;;1.90;1.00;;;;;;5038807;28;20166;-82
2023/02/28 08:36:44;;;;;;;65.72;6.10;;;1.90;1.00;;;;;;5038853;28;20169;-82
2023/02/28 08:39:10;;;;;;;69.80;5.90;;;2.00;1.00;;;;;;5037426;28;20197;-82
2023/02/28 08:41:36;;;;;;;66.50;6.70;;;2.00;1.00;;;;;;5019686;28;20201;-82
2023/02/28 08:44:02;;;;;;;66.20;6.30;;;2.00;1.00;;;;;;5038510;28;20906;-82
2023/02/28 08:46:28;;;;;;;66.67;6.53;;;2.10;1.00;;;;;;5038173;28;20380;-84
2023/02/28 08:48:55;;;;;;;66.47;6.13;;;2.20;1.00;;;;;;5022320;28;20197;-82
2023/02/28 08:51:26;;;;;;;67.05;6.30;;;2.20;1.00;;;;;;5040641;28;20412;-81
2023/02/28 08:53:57;;;;;;;66.68;6.28;;;2.20;1.00;;;;;;5023704;28;20207;-81
2023/02/28 08:56:23;;;;;;;66.25;5.65;;;2.20;1.00;;;;;;5041705;28;20149;-81
2023/02/28 08:58:49;;;;;;;65.87;6.10;;;2.40;1.00;;;;;;5041111;28;20162;-81
2023/02/28 09:01:21;;;;;;;66.50;5.72;;;2.40;1.00;;;;;;5040275;28;20188;-81
2023/02/28 09:03:48;;;;;;;66.00;5.38;;;2.40;1.00;;;;;;5040718;28;20180;-81
2023/02/28 09:06:16;;;;;;;65.57;5.95;;;2.50;1.00;;;;;;5022904;28;20169;-81
2023/02/28 09:08:44;;;;;;;68.28;7.18;;;2.60;1.00;;;;;;5041000;28;20219;-81
2023/02/28 09:11:11;;;;;;;64.97;5.70;;;2.50;1.00;;;;;;5040465;28;20713;-81
2023/02/28 09:13:37;;;;;;;66.43;5.97;;;2.50;1.00;;;;;;5041059;28;20177;-81
2023/02/28 09:16:05;;;;;;;65.30;5.35;;;2.60;1.00;;;;;;5041264;28;20588;-81
2023/02/28 09:18:31;;;;;;;66.05;5.70;;;2.60;1.00;;;;;;5040348;28;20236;-81
2023/02/28 09:20:57;;;;;;;64.97;5.50;;;2.60;1.00;;;;;;5021692;28;20278;-81
2023/02/28 09:23:24;;;;;;;64.50;5.50;;;2.60;1.00;;;;;;5022378;28;20772;-81
2023/02/28 09:25:54;;;;;;;65.43;5.47;;;2.70;1.00;;;;;;5040149;28;20231;-81
2023/02/28 09:28:21;;;;;;;66.72;5.55;;;2.70;1.00;;;;;;5040292;28;20189;-81
2023/02/28 09:30:49;;;;;;;66.03;6.82;;;2.70;1.00;;;;;;5040596;28;20180;-81
2023/02/28 09:33:16;;;;;;;65.18;5.50;;;2.70;1.00;;;;;;5039806;28;20200;-81
2023/02/28 09:35:42;;;;;;;66.57;6.30;;;2.70;1.00;;;;;;5039597;28;20191;-81
2023/02/28 09:38:09;;;;;;;64.60;4.50;;;2.80;1.00;;;;;;5039715;28;20157;-81
2023/02/28 09:40:49;;;;;;;69.25;6.43;;;2.80;1.00;;;;;;5022331;28;20193;-81
2023/02/28 09:43:17;;;;;;;67.00;4.93;;;2.90;1.00;;;;;;5039145;28;20239;-81
2023/02/28 09:45:48;;;;;;;65.82;5.53;;;3.00;1.00;;;;;;5040025;28;20188;-81
2023/02/28 09:48:32;;;;;;;65.68;5.07;;;3.00;1.00;;;;;;5147568;22;20215;-81
2023/02/28 09:51:40;;;;;;;65.93;5.15;;;3.00;1.00;;;;;;5060171;28;20509;-81
2023/02/28 09:54:40;;;;;;;65.05;5.03;;;3.10;1.00;;;;;;5040782;28;20146;-81
2023/02/28 09:57:22;;;;;;;66.07;5.80;;;3.20;1.00;;;;;;5005294;28;20227;-81
2023/02/28 10:00:27;;;;;;;68.45;7.38;;;3.30;1.00;;;;;;5039825;28;20528;-82
2023/02/28 10:03:32;;;;;;;65.70;6.40;;;3.40;1.00;;;;;;5054823;28;20204;-81
2023/02/28 10:06:39;;;;;;;67.53;6.63;;;3.40;1.00;;;;;;5030801;28;20173;-81
2023/02/28 10:09:24;;;;;;;66.10;5.63;;;3.60;1.00;;;;;;4998200;28;20658;-81
2023/02/28 10:12:06;;;;;;;66.40;5.63;;;3.60;1.00;;;;;;4981777;28;20229;-81
2023/02/28 10:14:57;;;;;;;67.35;5.80;;;3.70;1.00;;;;;;5037189;28;20205;-81
2023/02/28 10:17:56;;;;;;;66.13;5.53;;;3.70;1.00;;;;;;5038619;28;20158;-81
2023/02/28 10:20:30;;;;;;;65.65;5.95;;;3.60;1.00;;;;;;5054301;28;20169;-81
2023/02/28 10:23:41;;;;;;;66.50;6.20;;;3.70;1.00;;;;;;5038674;28;20614;-81
2023/02/28 10:26:27;;;;;;;66.55;6.10;;;3.80;1.00;;;;;;5054915;28;20532;-81
2023/02/28 10:28:59;;;;;;;67.88;6.25;;;3.90;1.00;;;;;;5036615;28;20165;-81
2023/02/28 10:31:44;;;;;;;67.05;6.55;;;3.90;1.00;;;;;;5038513;28;20185;-81
2023/02/28 10:35:05;;;;;;;65.50;5.20;;;4.00;1.00;;;;;;5038197;28;20175;-81
2023/02/28 10:37:38;;;;;;;66.40;5.28;;;4.20;1.00;;;;;;5040118;28;20154;-81
2023/02/28 10:40:08;;;;;;;67.30;6.10;;;4.00;1.00;;;;;;5039520;28;20548;-81
2023/02/28 10:42:43;;;;;;;65.05;5.18;;;4.10;1.00;;;;;;5039347;28;20188;-81
2023/02/28 10:45:20;;;;;;;66.97;5.32;;;4.10;1.00;;;;;;5038964;28;20179;-81
2023/02/28 10:48:27;;;;;;;64.88;5.03;;;4.20;1.00;;;;;;5037266;28;20165;-81
2023/02/28 10:50:58;;;;;;;66.40;5.40;;;4.30;1.00;;;;;;4997364;28;20186;-81
2023/02/28 10:53:27;;;;;;;66.72;5.35;;;4.30;1.00;;;;;;5031748;28;20615;-81
2023/02/28 10:56:07;;;;;;;67.07;5.07;;;4.30;1.00;;;;;;5052713;28;20219;-81
2023/02/28 10:59:22;;;;;;;66.13;5.20;;;4.50;1.00;;;;;;5052842;28;20169;-81
2023/02/28 11:01:53;;;;;;;66.35;5.55;;;4.60;1.00;;;;;;4979425;28;20218;-81
2023/02/28 11:04:29;;;;;;;66.10;4.80;;;4.70;1.00;;;;;;4979484;28;20178;-81
2023/02/28 11:07:27;;;;;;;66.97;5.53;;;4.90;1.00;;;;;;5037700;28;20232;-81
2023/02/28 11:10:08;;;;;;;66.45;5.15;;;5.00;1.00;;;;;;5036043;28;20172;-81
2023/02/28 11:12:42;;;;;;;64.97;4.88;;;4.80;1.00;;;;;;5036910;28;20617;-81
2023/02/28 11:15:38;;;;;;;66.75;5.30;;;4.70;1.00;;;;;;5038193;28;20150;-81
2023/02/28 11:18:34;;;;;;;66.18;4.45;;;4.80;1.00;;;;;;5038051;28;20228;-81
2023/02/28 11:21:02;;;;;;;64.90;4.65;;;4.70;1.00;;;;;;5037276;28;20169;-81
2023/02/28 11:23:35;;;;;;;66.15;4.97;;;4.80;1.00;;;;;;5036166;28;20193;-81
2023/02/28 11:26:04;;;;;;;65.03;4.82;;;4.50;1.00;;;;;;5035755;28;20157;-81
2023/02/28 11:31:15;;;;;;;66.53;5.20;;;4.50;1.00;;;;;;5126875;22;20595;-83
2023/02/28 11:33:53;;;;;;;66.07;5.05;;;4.40;1.00;;;;;;5021259;28;20260;-84
2023/02/28 11:36:27;;;;;;;65.38;5.07;;;4.60;1.00;;;;;;5020069;28;20630;-84
2023/02/28 11:39:10;;;;;;;66.38;5.18;;;4.80;1.00;;;;;;5020695;28;20191;-85
2023/02/28 11:42:11;;;;;;;65.28;5.10;;;5.00;1.00;;;;;;5038898;28;20243;-84
2023/02/28 11:45:07;;;;;;;65.57;5.50;;;5.10;1.00;;;;;;4994717;28;20173;-84
2023/02/28 11:47:48;;;;;;;65.63;5.03;;;5.30;1.00;;;;;;5036919;28;20153;-84
2023/02/28 11:50:42;;;;;;;67.55;6.03;;;5.50;1.00;;;;;;5020113;28;20229;-84
2023/02/28 11:53:16;;;;;;;65.72;5.57;;;5.70;1.00;;;;;;5020371;28;20189;-85
2023/02/28 11:55:54;;;;;;;68.20;5.28;;;5.80;1.00;;;;;;5038499;28;20156;-84
2023/02/28 11:58:57;;;;;;;66.15;5.25;;;5.70;1.00;;;;;;5019896;28;20161;-85
2023/02/28 12:01:34;;;;;;;65.80;5.80;;;5.90;1.00;;;;;;5037282;28;20280;-84
2023/02/28 12:04:29;;;;;;;65.53;5.90;;;6.10;1.00;;;;;;5020382;28;20169;-84
2023/02/28 12:07:08;;;;;;;65.00;5.50;;;6.10;1.00;;;;;;5020972;28;20170;-84
2023/02/28 12:09:43;;;;;;;65.38;5.10;;;6.10;1.00;;;;;;5020903;28;20161;-83
2023/02/28 12:12:21;;;;;;;65.75;5.45;;;5.70;1.00;;;;;;5038546;28;20567;-84
2023/02/28 12:15:13;;;;;;;67.40;6.07;;;5.50;1.00;;;;;;5038644;28;20157;-85
2023/02/28 12:17:55;;;;;;;65.07;5.65;;;5.80;1.00;;;;;;5020757;28;20264;-85
2023/02/28 12:20:35;;;;;;;67.25;5.20;;;5.80;1.00;;;;;;5048124;28;20145;-85
2023/02/28 12:23:31;;;;;;;66.45;5.80;;;5.80;1.00;;;;;;5023265;28;20359;-85
2023/02/28 12:26:34;;;;;;;66.90;6.00;;;5.90;1.00;;;;;;5021305;28;20177;-85
2023/02/28 12:29:09;;;;;;;65.38;4.95;;;6.30;1.00;;;;;;5026369;28;20572;-84
2023/02/28 12:32:03;;;;;;;66.57;5.53;;;6.30;1.00;;;;;;5024414;28;20188;-85
2023/02/28 12:34:36;;;;;;;65.70;5.75;;;6.00;1.00;;;;;;5042394;28;20161;-84
2023/02/28 12:37:07;;;;;;;66.45;5.75;;;5.90;1.00;;;;;;5024230;28;20179;-84
2023/02/28 12:39:41;;;;;;;65.90;5.50;;;5.80;1.00;;;;;;5041248;28;20231;-85
2023/02/28 12:42:21;;;;;;;65.80;6.00;;;5.70;1.00;;;;;;5023258;28;20201;-84
2023/02/28 12:44:54;;;;;;;67.97;6.20;;;5.70;1.00;;;;;;5023556;28;20157;-84
2023/02/28 12:47:24;;;;;;;65.00;5.72;;;5.70;1.00;;;;;;5042618;28;20161;-85
2023/02/28 12:50:25;;;;;;;65.75;5.85;;;6.00;1.00;;;;;;5024411;28;20200;-84
2023/02/28 12:53:00;;;;;;;66.93;5.80;;;6.20;1.00;;;;;;5013661;28;20200;-84
2023/02/28 12:55:41;;;;;;;66.68;6.30;;;6.40;1.00;;;;;;5042422;28;20152;-84
2023/02/28 12:58:10;;;;;;;70.03;6.47;;;6.30;1.00;;;;;;5040420;28;20146;-85
2023/02/28 13:00:45;;;;;;;66.30;5.80;;;6.30;1.00;;;;;;5040121;28;20529;-84
2023/02/28 13:03:14;;;;;;;68.43;6.53;;;6.30;1.00;;;;;;5023460;28;20193;-85
2023/02/28 13:06:16;;;;;;;66.10;6.32;;;6.30;1.00;;;;;;5023766;28;20542;-85
2023/02/28 13:09:10;;;;;;;65.97;5.35;;;6.30;1.00;;;;;;5025203;28;20652;-84
2023/02/28 13:11:40;;;;;;;67.53;6.68;;;6.00;1.00;;;;;;5023624;28;20185;-85
2023/02/28 13:14:19;;;;;;;69.60;6.20;;;6.20;1.00;;;;;;5041343;28;20541;-85
2023/02/28 13:16:55;;;;;;;66.30;6.18;;;6.30;1.00;;;;;;5023977;28;20200;-85
2023/02/28 13:19:23;;;;;;;65.75;5.93;;;6.20;1.00;;;;;;5040556;28;20138;-84
2023/02/28 13:21:51;;;;;;;66.65;6.55;;;6.20;1.00;;;;;;5024069;28;20227;-85
2023/02/28 13:24:43;;;;;;;66.35;6.95;;;6.10;1.00;;;;;;5023346;28;20169;-84
2023/02/28 13:27:12;;;;;;;65.60;5.70;;;6.10;1.00;;;;;;5042651;28;20165;-83
2023/02/28 13:29:42;;;;;;;66.13;6.93;;;5.90;1.00;;;;;;5041548;28;20184;-84
2023/02/28 13:32:32;;;;;;;66.35;6.75;;;5.90;1.00;;;;;;5023645;28;20216;-84
2023/02/28 13:34:58;;;;;;;68.40;6.80;;;5.60;1.00;;;;;;5031233;28;20177;-84
2023/02/28 13:37:34;;;;;;;65.50;6.63;;;5.80;1.00;;;;;;5041106;28;20173;-85
2023/02/28 13:40:05;;;;;;;66.68;6.97;;;5.80;1.00;;;;;;5023567;28;20263;-84
2023/02/28 13:42:30;;;;;;;67.40;6.78;;;6.00;1.00;;;;;;5041366;28;20224;-85
2023/02/28 13:45:02;;;;;;;68.50;6.80;;;6.00;1.00;;;;;;5040273;28;20640;-84
2023/02/28 13:47:34;;;;;;;69.85;6.15;;;5.80;1.00;;;;;;5021141;28;20165;-85
2023/02/28 13:50:28;;;;;;;65.40;5.80;;;5.80;1.00;;;;;;5021290;28;20164;-84
2023/02/28 13:53:03;;;;;;;67.65;6.25;;;5.90;1.00;;;;;;5023533;28;20683;-85
2023/02/28 13:55:36;;;;;;;67.22;6.50;;;6.00;1.00;;;;;;5041221;28;20680;-85